createdAt,value
2023-04-15T00:02:19.096Z,92.59
2023-04-15T00:04:48.308Z,92.99
2023-04-15T00:07:16.005Z,92.89
2023-04-15T00:09:43.660Z,92.45
2023-04-15T00:12:12.020Z,93.17
2023-04-15T00:14:39.707Z,92.79
2023-04-15T00:17:07.285Z,92.64
2023-04-15T00:19:35.336Z,94.13
2023-04-15T00:22:03.131Z,93.62
2023-04-15T00:24:30.782Z,94.44
2023-04-15T00:26:58.730Z,94.92
2023-04-15T00:29:26.440Z,94.03
2023-04-15T00:31:54.317Z,94.16
2023-04-15T00:34:22.275Z,94.57
2023-04-15T00:36:50.731Z,94.35
2023-04-15T00:39:18.398Z,94.03
2023-04-15T00:41:46.875Z,93.96
2023-04-15T00:44:14.505Z,93.42
2023-04-15T00:46:43.090Z,94.09
2023-04-15T00:49:12.212Z,92.36
2023-04-15T00:51:39.813Z,93.77
2023-04-15T00:54:08.261Z,93.59
2023-04-15T00:56:37.354Z,94.02
2023-04-15T00:59:06.129Z,93.55
2023-04-15T01:01:35.637Z,93.87
2023-04-15T01:04:04.286Z,93.13
2023-04-15T01:06:33.027Z,93.09
2023-04-15T01:09:01.059Z,92.27
2023-04-15T01:11:29.353Z,92.59
2023-04-15T01:13:58.820Z,93.99
2023-04-15T01:16:26.597Z,93.40
2023-04-15T01:18:55.059Z,92.71
2023-04-15T01:21:23.944Z,92.91
2023-04-15T01:23:53.418Z,92.72
2023-04-15T01:26:21.887Z,93.61
2023-04-15T01:28:49.522Z,93.49
2023-04-15T01:31:17.186Z,93.53
2023-04-15T01:33:46.423Z,93.80
2023-04-15T01:36:15.506Z,94.48
2023-04-15T01:38:43.269Z,95.35
2023-04-15T01:41:11.351Z,95.28
2023-04-15T01:43:39.232Z,93.82
2023-04-15T01:46:06.793Z,94.68
2023-04-15T01:48:34.750Z,93.92
2023-04-15T01:51:04.287Z,93.25
2023-04-15T01:53:31.920Z,94.19
2023-04-15T01:56:00.108Z,94.79
2023-04-15T01:58:27.701Z,93.72
2023-04-15T02:00:55.336Z,92.79
2023-04-15T02:03:25.173Z,94.42
2023-04-15T02:05:53.781Z,93.92
2023-04-15T02:08:21.986Z,93.58
2023-04-15T02:10:50.079Z,93.17
2023-04-15T02:13:18.279Z,92.65
2023-04-15T02:15:49.710Z,92.83
2023-04-15T02:18:19.668Z,92.80
2023-04-15T02:20:47.607Z,93.15
2023-04-15T02:23:15.790Z,91.80
2023-04-15T02:25:53.423Z,91.48
2023-04-15T02:28:22.332Z,91.36
2023-04-15T02:30:49.991Z,91.54
2023-04-15T02:33:17.582Z,91.79
2023-04-15T02:35:45.504Z,91.98
2023-04-15T02:38:13.455Z,93.33
2023-04-15T02:40:41.190Z,92.99
2023-04-15T02:43:09.042Z,92.98
2023-04-15T02:45:36.810Z,93.15
2023-04-15T02:48:05.335Z,91.88
2023-04-15T02:50:33.462Z,92.73
2023-04-15T02:53:01.880Z,93.74
2023-04-15T02:55:29.669Z,92.91
2023-04-15T02:57:57.684Z,91.67
2023-04-15T03:00:25.392Z,92.07
2023-04-15T03:02:58.743Z,91.30
2023-04-15T03:05:27.037Z,91.33
2023-04-15T03:07:54.992Z,92.78
2023-04-15T03:10:22.694Z,92.79
2023-04-15T03:12:50.624Z,92.93
2023-04-15T03:15:18.478Z,92.82
2023-04-15T03:17:46.393Z,92.85
2023-04-15T03:20:14.473Z,91.87
2023-04-15T03:22:42.256Z,92.38
2023-04-15T03:25:10.170Z,92.28
2023-04-15T03:27:38.611Z,92.04
2023-04-15T03:30:07.232Z,92.19
2023-04-15T03:32:36.167Z,92.14
2023-04-15T03:35:04.416Z,93.78
2023-04-15T03:37:32.115Z,93.43
2023-04-15T03:39:59.725Z,92.81
2023-04-15T03:42:27.621Z,92.61
2023-04-15T03:44:55.249Z,92.74
2023-04-15T03:47:23.069Z,92.73
2023-04-15T03:49:51.068Z,93.06
2023-04-15T03:52:18.670Z,92.65
2023-04-15T03:54:46.320Z,92.65
2023-04-15T03:57:14.278Z,93.19
2023-04-15T03:59:42.077Z,93.47
2023-04-15T04:02:09.881Z,92.90
2023-04-15T04:04:37.929Z,92.50
2023-04-15T04:07:05.627Z,92.85
2023-04-15T04:09:33.310Z,92.58
2023-04-15T04:12:01.225Z,91.93
2023-04-15T04:14:37.621Z,91.56
2023-04-15T04:17:05.648Z,91.06
2023-04-15T04:19:33.309Z,91.53
2023-04-15T04:22:01.370Z,91.79
2023-04-15T04:24:29.217Z,91.91
2023-04-15T04:26:56.756Z,93.06
2023-04-15T04:29:24.456Z,93.41
2023-04-15T04:31:52.578Z,92.97
2023-04-15T04:34:20.343Z,93.15
2023-04-15T04:36:47.932Z,92.87
2023-04-15T04:39:16.426Z,93.29
2023-04-15T04:41:44.683Z,94.03
2023-04-15T04:44:13.018Z,93.61
2023-04-15T04:46:40.954Z,92.99
2023-04-15T04:49:08.697Z,92.43
2023-04-15T04:51:36.547Z,93.12
2023-04-15T04:54:04.621Z,93.25
2023-04-15T04:56:32.171Z,92.70
2023-04-15T04:58:59.885Z,93.00
2023-04-15T05:01:28.376Z,92.37
2023-04-15T05:03:56.251Z,92.73
2023-04-15T05:06:24.004Z,93.38
2023-04-15T05:08:52.211Z,93.25
2023-04-15T05:11:19.929Z,92.65
2023-04-15T05:13:47.557Z,93.23
2023-04-15T05:16:15.475Z,92.79
2023-04-15T05:18:43.319Z,92.99
2023-04-15T05:21:11.117Z,92.88
2023-04-15T05:23:39.321Z,92.74
2023-04-15T05:26:06.884Z,92.99
2023-04-15T05:28:34.565Z,91.55
2023-04-15T05:31:02.710Z,91.16
2023-04-15T05:33:30.508Z,91.72
2023-04-15T05:35:58.224Z,93.57
2023-04-15T05:38:26.284Z,94.17
2023-04-15T05:40:54.162Z,94.53
2023-04-15T05:43:21.735Z,94.66
2023-04-15T05:45:49.692Z,94.17
2023-04-15T05:48:17.696Z,94.83
2023-04-15T05:50:45.272Z,93.02
2023-04-15T05:53:13.135Z,92.08
2023-04-15T05:55:40.760Z,92.31
2023-04-15T05:58:08.479Z,92.16
2023-04-15T06:00:37.079Z,91.63
2023-04-15T06:03:05.176Z,93.04
2023-04-15T06:05:33.004Z,93.52
2023-04-15T06:08:00.684Z,92.58
2023-04-15T06:10:28.640Z,92.62
2023-04-15T06:12:56.364Z,92.33
2023-04-15T06:15:24.045Z,91.94
2023-04-15T06:17:52.141Z,90.95
2023-04-15T06:20:19.943Z,91.04
2023-04-15T06:22:50.346Z,92.11
2023-04-15T06:25:18.275Z,92.32
2023-04-15T06:27:46.474Z,92.01
2023-04-15T06:30:14.068Z,92.01
2023-04-15T06:32:42.029Z,91.57
2023-04-15T06:35:09.841Z,92.13
2023-04-15T06:37:37.478Z,91.92
2023-04-15T06:40:06.209Z,91.73
2023-04-15T06:42:36.092Z,91.82
2023-04-15T06:45:04.377Z,91.89
2023-04-15T06:47:32.421Z,91.80
2023-04-15T06:50:00.285Z,89.73
2023-04-15T06:52:27.973Z,90.44
2023-04-15T06:54:55.917Z,90.94
2023-04-15T06:57:23.637Z,90.30
2023-04-15T06:59:51.358Z,89.16
2023-04-15T07:02:19.593Z,88.99
2023-04-15T07:04:47.319Z,88.81
2023-04-15T07:07:14.904Z,88.82
2023-04-15T07:09:42.993Z,88.16
2023-04-15T07:12:11.149Z,87.70
2023-04-15T07:14:39.008Z,85.82
2023-04-15T07:17:07.190Z,84.56
2023-04-15T07:19:35.013Z,84.61
2023-04-15T07:22:02.770Z,83.30
2023-04-15T07:24:30.636Z,84.29
2023-04-15T07:26:59.527Z,83.38
2023-04-15T07:29:28.726Z,82.08
2023-04-15T07:31:56.578Z,80.76
2023-04-15T07:34:24.296Z,80.22
2023-04-15T07:36:52.226Z,80.84
2023-04-15T07:39:20.206Z,79.94
2023-04-15T07:41:48.442Z,79.36
2023-04-15T07:44:16.030Z,81.08
2023-04-15T07:46:44.028Z,81.66
2023-04-15T07:49:11.743Z,79.74
2023-04-15T07:51:39.404Z,79.71
2023-04-15T07:54:07.552Z,80.24
2023-04-15T07:56:35.105Z,80.29
2023-04-15T07:59:03.151Z,80.49
2023-04-15T08:01:31.255Z,79.74
2023-04-15T08:03:59.880Z,79.42
2023-04-15T08:06:27.542Z,80.31
2023-04-15T08:08:55.306Z,80.45
2023-04-15T08:11:23.342Z,79.54
2023-04-15T08:13:52.105Z,78.04
2023-04-15T08:16:21.854Z,77.87
2023-04-15T08:18:50.864Z,76.14
2023-04-15T08:21:19.552Z,74.46
2023-04-15T08:23:49.305Z,70.41
2023-04-15T08:26:18.202Z,70.00
2023-04-15T08:28:46.432Z,69.07
2023-04-15T08:31:15.205Z,69.43
2023-04-15T08:33:43.369Z,69.08
2023-04-15T08:36:11.045Z,70.02
2023-04-15T08:38:38.787Z,70.22
2023-04-15T08:41:12.655Z,69.75
2023-04-15T08:43:49.455Z,68.22
2023-04-15T08:46:17.668Z,66.72
2023-04-15T08:48:47.838Z,68.51
2023-04-15T08:51:17.770Z,70.34
2023-04-15T08:53:46.292Z,71.14
2023-04-15T08:56:15.447Z,71.77
2023-04-15T08:58:46.703Z,71.56
2023-04-15T09:01:14.627Z,70.38
2023-04-15T09:03:42.801Z,68.76
2023-04-15T09:06:11.567Z,68.70
2023-04-15T09:08:39.753Z,67.74
2023-04-15T09:11:07.373Z,68.44
2023-04-15T09:13:35.179Z,69.23
2023-04-15T09:16:03.635Z,68.67
2023-04-15T09:18:33.735Z,70.96
2023-04-15T09:21:09.173Z,71.00
2023-04-15T09:23:38.134Z,69.97
2023-04-15T09:26:06.621Z,70.09
2023-04-15T09:28:42.322Z,69.80
2023-04-15T09:31:10.832Z,70.13
2023-04-15T09:33:55.218Z,67.17
2023-04-15T09:36:23.104Z,65.46
2023-04-15T09:38:58.166Z,65.84
2023-04-15T09:41:27.175Z,65.28
2023-04-15T09:43:55.799Z,66.80
2023-04-15T09:46:49.298Z,67.06
2023-04-15T09:49:17.365Z,64.99
2023-04-15T09:51:54.101Z,66.28
2023-04-15T09:54:34.582Z,66.67
2023-04-15T09:57:09.014Z,66.53
2023-04-15T09:59:37.190Z,65.83
2023-04-15T10:02:05.736Z,65.48
2023-04-15T10:04:35.992Z,66.63
2023-04-15T10:07:05.244Z,66.04
2023-04-15T10:09:33.354Z,68.41
2023-04-15T10:12:01.812Z,69.79
2023-04-15T10:14:34.433Z,70.59
2023-04-15T10:17:04.635Z,69.53
2023-04-15T10:19:34.156Z,68.97
2023-04-15T10:22:02.510Z,68.07
2023-04-15T10:24:33.763Z,65.32
2023-04-15T10:27:03.794Z,66.01
2023-04-15T10:29:31.937Z,65.59
2023-04-15T10:31:59.963Z,63.10
2023-04-15T10:34:28.068Z,63.46
2023-04-15T10:36:56.985Z,63.84
2023-04-15T10:39:50.978Z,64.29
2023-04-15T10:42:19.757Z,66.71
2023-04-15T10:44:51.545Z,67.59
2023-04-15T10:47:20.776Z,69.07
2023-04-15T10:49:59.225Z,71.28
2023-04-15T10:52:29.249Z,72.57
2023-04-15T10:55:20.279Z,72.49
2023-04-15T10:57:51.107Z,70.43
2023-04-15T11:00:19.813Z,68.72
2023-04-15T11:02:48.473Z,69.13
2023-04-15T11:05:17.615Z,70.90
2023-04-15T11:07:52.141Z,70.02
2023-04-15T11:10:26.116Z,67.58
2023-04-15T11:12:57.471Z,69.00
2023-04-15T11:15:37.513Z,69.53
2023-04-15T11:18:26.951Z,67.27
2023-04-15T11:20:57.258Z,69.16
2023-04-15T11:23:33.103Z,66.92
2023-04-15T11:26:09.981Z,68.89
2023-04-15T11:28:39.797Z,69.05
2023-04-15T11:31:11.661Z,67.25
2023-04-15T11:33:46.284Z,68.65
2023-04-15T11:36:14.383Z,69.02
2023-04-15T11:38:47.029Z,68.98
2023-04-15T11:41:15.551Z,69.14
2023-04-15T11:43:43.952Z,67.18
2023-04-15T11:46:11.597Z,68.47
2023-04-15T11:48:43.248Z,66.57
2023-04-15T11:51:11.729Z,65.03
2023-04-15T11:53:48.098Z,63.44
2023-04-15T11:56:27.758Z,64.31
2023-04-15T11:58:57.751Z,63.58
2023-04-15T12:01:35.768Z,63.28
2023-04-15T12:04:15.074Z,64.05
2023-04-15T12:06:43.394Z,63.47
2023-04-15T12:09:11.451Z,63.16
2023-04-15T12:11:57.953Z,65.06
2023-04-15T12:14:30.349Z,65.39
2023-04-15T12:16:59.544Z,66.11
2023-04-15T12:19:28.767Z,65.35
2023-04-15T12:22:04.278Z,65.71
2023-04-15T12:24:36.850Z,66.84
2023-04-15T12:27:09.462Z,65.98
2023-04-15T12:29:39.593Z,64.49
2023-04-15T12:32:10.782Z,64.94
2023-04-15T12:34:40.768Z,63.40
2023-04-15T12:37:10.063Z,63.21
2023-04-15T12:39:39.842Z,64.41
2023-04-15T12:42:08.246Z,64.26
2023-04-15T12:44:37.030Z,63.07
2023-04-15T12:47:05.337Z,65.12
2023-04-15T12:49:33.211Z,65.14
2023-04-15T12:52:02.207Z,66.77
2023-04-15T12:54:30.870Z,67.49
2023-04-15T12:56:59.260Z,67.78
2023-04-15T12:59:27.012Z,68.91
2023-04-15T13:01:55.182Z,68.50
2023-04-15T13:04:23.086Z,69.54
2023-04-15T13:06:50.846Z,71.46
2023-04-15T13:09:19.027Z,70.15
2023-04-15T13:11:46.812Z,70.31
2023-04-15T13:14:14.435Z,70.69
2023-04-15T13:16:42.342Z,71.18
2023-04-15T13:19:10.036Z,72.01
2023-04-15T13:21:37.804Z,71.63
2023-04-15T13:24:06.040Z,70.69
2023-04-15T13:26:34.585Z,68.90
2023-04-15T13:29:02.584Z,68.48
2023-04-15T13:31:30.879Z,68.20
2023-04-15T13:33:58.539Z,65.98
2023-04-15T13:36:27.239Z,66.00
2023-04-15T13:38:55.246Z,66.73
2023-04-15T13:41:23.276Z,66.86
2023-04-15T13:43:51.093Z,67.01
2023-04-15T13:46:19.175Z,67.39
2023-04-15T13:48:47.512Z,66.60
2023-04-15T13:51:15.469Z,67.90
2023-04-15T13:53:43.505Z,68.20
2023-04-15T13:56:11.696Z,69.08
2023-04-15T13:58:40.582Z,68.78
2023-04-15T14:01:08.980Z,68.82
2023-04-15T14:03:37.723Z,68.72
2023-04-15T14:06:06.727Z,69.07
2023-04-15T14:08:35.004Z,68.23
2023-04-15T14:11:03.383Z,68.25
2023-04-15T14:13:31.252Z,68.40
2023-04-15T14:15:59.302Z,68.35
2023-04-15T14:18:27.555Z,68.83
2023-04-15T14:20:55.635Z,68.25
2023-04-15T14:23:23.748Z,67.53
2023-04-15T14:25:51.809Z,68.34
2023-04-15T14:28:19.741Z,68.76
2023-04-15T14:30:49.271Z,68.58
2023-04-15T14:33:17.302Z,68.24
2023-04-15T14:35:44.912Z,69.36
2023-04-15T14:38:12.589Z,69.43
2023-04-15T14:40:41.631Z,69.48
2023-04-15T14:43:09.347Z,69.62
2023-04-15T14:45:38.740Z,70.28
2023-04-15T14:48:09.675Z,70.73
2023-04-15T14:50:37.423Z,69.68
2023-04-15T14:53:05.467Z,70.56
2023-04-15T14:55:33.790Z,71.37
2023-04-15T14:58:01.739Z,71.61
2023-04-15T15:00:29.511Z,71.27
2023-04-15T15:02:57.628Z,69.63
2023-04-15T15:05:25.504Z,68.83
2023-04-15T15:07:53.343Z,69.19
2023-04-15T15:10:46.574Z,70.35
2023-04-15T15:13:10.433Z,70.21
2023-04-15T15:15:39.060Z,68.70
2023-04-15T15:18:07.285Z,69.22
2023-04-15T15:20:35.077Z,69.38
2023-04-15T15:23:03.074Z,69.09
2023-04-15T15:25:30.718Z,67.96
2023-04-15T15:27:58.979Z,68.49
2023-04-15T15:30:27.302Z,68.44
2023-04-15T15:32:55.788Z,69.15
2023-04-15T15:35:25.398Z,68.96
2023-04-15T15:37:53.510Z,70.09
2023-04-15T15:40:21.144Z,69.66
2023-04-15T15:42:48.969Z,70.96
2023-04-15T15:45:17.344Z,70.54
2023-04-15T15:47:44.989Z,70.81
2023-04-15T15:50:13.765Z,71.34
2023-04-15T15:52:41.895Z,71.79
2023-04-15T15:55:09.802Z,72.27
2023-04-15T15:57:37.619Z,71.40
2023-04-15T16:03:04.244Z,71.69
2023-04-15T16:05:25.301Z,72.61
2023-04-15T16:07:53.189Z,72.52
2023-04-15T16:10:20.855Z,72.02
2023-04-15T16:12:49.021Z,73.00
2023-04-15T16:15:16.617Z,73.51
2023-04-15T16:17:44.427Z,72.68
2023-04-15T16:20:12.343Z,72.35
2023-04-15T16:22:40.084Z,72.85
2023-04-15T16:25:08.178Z,73.29
2023-04-15T16:27:40.821Z,73.46
2023-04-15T16:30:17.957Z,72.79
2023-04-15T16:32:46.080Z,72.81
2023-04-15T16:35:13.644Z,72.88
2023-04-15T16:37:41.482Z,73.18
2023-04-15T16:40:10.176Z,73.31
2023-04-15T16:42:38.184Z,73.92
2023-04-15T16:45:06.345Z,73.37
2023-04-15T16:47:36.714Z,73.20
2023-04-15T16:50:04.764Z,73.03
2023-04-15T16:52:32.839Z,74.18
2023-04-15T16:55:01.023Z,74.84
2023-04-15T16:57:36.553Z,75.05
2023-04-15T17:00:16.951Z,76.31
2023-04-15T17:02:44.821Z,77.63
2023-04-15T17:05:12.617Z,78.22
2023-04-15T17:07:40.565Z,78.68
2023-04-15T17:10:08.706Z,80.07
2023-04-15T17:12:36.580Z,79.48
2023-04-15T17:15:05.064Z,80.76
2023-04-15T17:17:32.905Z,80.77
2023-04-15T17:20:00.592Z,80.19
2023-04-15T17:22:28.587Z,80.93
2023-04-15T17:24:56.173Z,80.07
2023-04-15T17:27:24.176Z,79.98
2023-04-15T17:29:53.809Z,79.58
2023-04-15T17:32:21.576Z,78.81
2023-04-15T17:34:51.403Z,78.89
2023-04-15T17:37:19.740Z,79.12
2023-04-15T17:39:47.722Z,79.99
2023-04-15T17:42:17.914Z,79.43
2023-04-15T17:44:46.025Z,79.73
2023-04-15T17:47:14.255Z,79.74
2023-04-15T17:49:42.238Z,80.23
2023-04-15T17:52:10.455Z,80.32
2023-04-15T17:54:38.425Z,80.48
2023-04-15T17:57:06.180Z,80.96
2023-04-15T17:59:34.570Z,80.82
2023-04-15T18:02:02.660Z,81.26
2023-04-15T18:04:31.250Z,81.21
2023-04-15T18:07:00.402Z,81.26
2023-04-15T18:09:28.148Z,80.70
2023-04-15T18:11:56.414Z,80.70
2023-04-15T18:14:34.177Z,81.08
2023-04-15T18:17:03.255Z,81.05
2023-04-15T18:19:31.397Z,81.69
2023-04-15T18:21:59.272Z,81.76
2023-04-15T18:26:56.101Z,82.12
2023-04-15T18:29:24.039Z,81.76
2023-04-15T18:31:53.121Z,82.01
2023-04-15T18:34:21.200Z,82.22
2023-04-15T18:36:48.908Z,82.30
2023-04-15T18:39:17.364Z,81.79
2023-04-15T18:41:45.859Z,81.88
2023-04-15T18:44:13.795Z,82.05
2023-04-15T18:46:41.826Z,82.31
2023-04-15T18:49:11.429Z,82.81
2023-04-15T18:51:39.742Z,82.67
2023-04-15T18:54:08.027Z,82.95
2023-04-15T18:56:36.217Z,83.21
2023-04-15T18:59:26.873Z,82.83
2023-04-15T19:01:53.327Z,83.66
2023-04-15T19:04:21.426Z,83.30
2023-04-15T19:06:49.548Z,83.07
2023-04-15T19:09:18.805Z,83.10
2023-04-15T19:11:46.717Z,83.01
2023-04-15T19:14:14.846Z,83.96
2023-04-15T19:16:43.658Z,84.55
2023-04-15T19:19:11.696Z,83.82
2023-04-15T19:21:40.377Z,83.03
2023-04-15T19:24:10.186Z,83.68
2023-04-15T19:26:38.211Z,84.48
2023-04-15T19:29:06.493Z,84.93
2023-04-15T19:31:35.304Z,85.64
2023-04-15T19:34:03.428Z,85.14
2023-04-15T19:36:32.428Z,85.58
2023-04-15T19:39:00.962Z,86.16
2023-04-15T19:41:28.922Z,85.57
2023-04-15T19:43:56.607Z,85.18
2023-04-15T19:46:25.000Z,84.85
2023-04-15T19:48:54.098Z,84.86
2023-04-15T19:51:22.323Z,84.89
2023-04-15T19:53:50.800Z,84.70
2023-04-15T19:56:18.700Z,84.98
2023-04-15T19:58:46.864Z,85.10
2023-04-15T20:01:15.324Z,84.99
2023-04-15T20:03:43.930Z,85.12
2023-04-15T20:06:12.455Z,85.15
2023-04-15T20:08:40.228Z,84.87
2023-04-15T20:11:09.873Z,84.57
2023-04-15T20:13:38.975Z,84.47
2023-04-15T20:16:06.591Z,84.11
2023-04-15T20:18:34.988Z,84.89
2023-04-15T20:21:02.966Z,84.63
2023-04-15T20:23:30.883Z,84.88
2023-04-15T20:25:58.921Z,84.76
2023-04-15T20:28:26.500Z,85.22
2023-04-15T20:30:54.469Z,85.46
2023-04-15T20:33:22.593Z,85.66
2023-04-15T20:35:50.257Z,85.25
2023-04-15T20:38:18.233Z,85.38
2023-04-15T20:40:46.434Z,84.67
2023-04-15T20:43:14.294Z,85.57
2023-04-15T20:45:42.239Z,85.93
2023-04-15T20:48:10.245Z,86.28
2023-04-15T20:50:38.787Z,86.45
2023-04-15T20:53:06.633Z,86.28
2023-04-15T20:55:34.693Z,86.12
2023-04-15T20:58:03.752Z,85.74
2023-04-15T21:00:31.841Z,85.84
2023-04-15T21:03:00.329Z,86.11
2023-04-15T21:05:29.488Z,86.30
2023-04-15T21:07:57.090Z,86.04
2023-04-15T21:10:26.197Z,85.92
2023-04-15T21:12:54.499Z,84.34
2023-04-15T21:15:22.244Z,86.23
2023-04-15T21:17:50.380Z,86.59
2023-04-15T21:20:18.164Z,86.08
2023-04-15T21:22:45.725Z,86.06
2023-04-15T21:25:13.683Z,85.93
2023-04-15T21:27:41.251Z,86.10
2023-04-15T21:30:09.246Z,86.11
2023-04-15T21:32:37.259Z,86.08
2023-04-15T21:35:05.312Z,86.07
2023-04-15T21:37:33.039Z,85.53
2023-04-15T21:40:01.092Z,85.83
2023-04-15T21:42:29.571Z,84.86
2023-04-15T21:44:57.653Z,84.72
2023-04-15T21:47:26.429Z,86.32
2023-04-15T21:49:54.499Z,87.77
2023-04-15T21:52:22.107Z,87.00
2023-04-15T21:54:50.606Z,87.82
2023-04-15T21:57:18.201Z,88.29
2023-04-15T21:59:45.875Z,88.58
2023-04-15T22:02:13.928Z,88.49
2023-04-15T22:04:41.972Z,88.41
2023-04-15T22:07:09.600Z,88.37
2023-04-15T22:09:37.304Z,88.39
2023-04-15T22:12:05.437Z,88.18
2023-04-15T22:14:33.102Z,88.82
2023-04-15T22:17:00.800Z,90.08
2023-04-15T22:19:28.694Z,90.43
2023-04-15T22:21:56.264Z,90.49
2023-04-15T22:24:38.537Z,90.43
2023-04-15T22:27:08.759Z,90.38
2023-04-15T22:29:36.380Z,90.38
2023-04-15T22:32:04.123Z,90.18
2023-04-15T22:34:32.058Z,90.17
2023-04-15T22:36:59.707Z,89.86
2023-04-15T22:39:27.302Z,90.71
2023-04-15T22:41:55.578Z,91.02
2023-04-15T22:44:23.280Z,91.59
2023-04-15T22:46:51.277Z,91.79
2023-04-15T22:49:19.233Z,91.90
2023-04-15T22:51:46.961Z,91.83
2023-04-15T22:54:15.185Z,91.24
2023-04-15T22:56:43.047Z,91.72
2023-04-15T22:59:11.064Z,92.27
2023-04-15T23:01:39.014Z,92.74
2023-04-15T23:04:25.877Z,91.87
2023-04-15T23:06:54.768Z,91.48
2023-04-15T23:09:22.875Z,91.11
2023-04-15T23:11:50.618Z,90.88
2023-04-15T23:14:18.235Z,91.04
2023-04-15T23:16:46.229Z,90.96
2023-04-15T23:19:13.926Z,90.62
2023-04-15T23:21:41.707Z,90.18
2023-04-15T23:24:09.650Z,90.48
2023-04-15T23:26:37.243Z,90.71
2023-04-15T23:29:05.088Z,90.48
2023-04-15T23:31:33.132Z,90.66
2023-04-15T23:34:02.115Z,90.39
2023-04-15T23:36:29.910Z,89.91
2023-04-15T23:38:58.340Z,90.07
2023-04-15T23:41:25.947Z,89.66
2023-04-15T23:43:54.114Z,90.15
2023-04-15T23:46:22.107Z,90.42
2023-04-15T23:48:49.744Z,90.02
2023-04-15T23:51:17.349Z,89.92
2023-04-15T23:53:45.370Z,89.99
2023-04-15T23:56:13.399Z,89.84
2023-04-15T23:58:41.387Z,89.86
